sensor_id;sensor_type;location;lat;lon;timestamp;pressure;altitude;pressure_sealevel;temperature;humidity
74659;BME280;63186;51.204;6.536;2022-10-17T00:02:20;101283.22;;;14.37;95.71
74659;BME280;63186;51.204;6.536;2022-10-17T00:04:45;101292.53;;;14.41;95.19
74659;BME280;63186;51.204;6.536;2022-10-17T00:07:10;101290.59;;;14.42;95.43
74659;BME280;63186;51.204;6.536;2022-10-17T00:09:36;101282.41;;;14.45;95.43
74659;BME280;63186;51.204;6.536;2022-10-17T00:12:01;101285.53;;;14.44;95.48
74659;BME280;63186;51.204;6.536;2022-10-17T00:14:26;101282.09;;;14.38;95.40
74659;BME280;63186;51.204;6.536;2022-10-17T00:16:52;101280.63;;;14.40;95.43
74659;BME280;63186;51.204;6.536;2022-10-17T00:19:17;101279.16;;;14.43;95.48
74659;BME280;63186;51.204;6.536;2022-10-17T00:21:42;101280.63;;;14.40;95.62
74659;BME280;63186;51.204;6.536;2022-10-17T00:24:07;101273.63;;;14.43;95.60
74659;BME280;63186;51.204;6.536;2022-10-17T00:26:33;101279.00;;;14.39;95.65
74659;BME280;63186;51.204;6.536;2022-10-17T00:28:58;101278.50;;;14.37;95.57
74659;BME280;63186;51.204;6.536;2022-10-17T00:31:24;101272.78;;;14.34;95.98
74659;BME280;63186;51.204;6.536;2022-10-17T00:33:50;101269.72;;;14.35;96.18
74659;BME280;63186;51.204;6.536;2022-10-17T00:36:18;101282.63;;;14.49;96.04
74659;BME280;63186;51.204;6.536;2022-10-17T00:38:46;101273.50;;;14.57;95.81
74659;BME280;63186;51.204;6.536;2022-10-17T00:41:14;101280.03;;;14.61;95.48
74659;BME280;63186;51.204;6.536;2022-10-17T00:44:03;101276.25;;;14.65;95.61
74659;BME280;63186;51.204;6.536;2022-10-17T00:46:34;101274.81;;;14.68;95.39
74659;BME280;63186;51.204;6.536;2022-10-17T00:49:05;101271.88;;;14.64;95.43
74659;BME280;63186;51.204;6.536;2022-10-17T00:51:42;101277.09;;;14.66;95.75
74659;BME280;63186;51.204;6.536;2022-10-17T00:54:10;101264.38;;;14.74;95.13
74659;BME280;63186;51.204;6.536;2022-10-17T00:56:37;101269.25;;;14.77;94.95
74659;BME280;63186;51.204;6.536;2022-10-17T00:59:04;101269.94;;;14.74;94.98
74659;BME280;63186;51.204;6.536;2022-10-17T01:01:31;101268.94;;;14.70;94.97
74659;BME280;63186;51.204;6.536;2022-10-17T01:03:56;101268.75;;;14.66;95.16
74659;BME280;63186;51.204;6.536;2022-10-17T01:06:21;101272.06;;;14.68;95.27
74659;BME280;63186;51.204;6.536;2022-10-17T01:08:46;101276.94;;;14.62;95.24
74659;BME280;63186;51.204;6.536;2022-10-17T01:11:39;101281.97;;;14.60;95.62
74659;BME280;63186;51.204;6.536;2022-10-17T01:17:21;101277.41;;;14.56;95.31
74659;BME280;63186;51.204;6.536;2022-10-17T01:25:41;101280.34;;;14.51;95.93
74659;BME280;63186;51.204;6.536;2022-10-17T01:28:40;101279.53;;;14.50;95.53
74659;BME280;63186;51.204;6.536;2022-10-17T01:31:13;101282.41;;;14.45;95.52
74659;BME280;63186;51.204;6.536;2022-10-17T01:36:36;101280.47;;;14.46;95.59
74659;BME280;63186;51.204;6.536;2022-10-17T01:39:21;101272.00;;;14.42;95.73
74659;BME280;63186;51.204;6.536;2022-10-17T01:42:12;101273.16;;;14.41;95.79
74659;BME280;63186;51.204;6.536;2022-10-17T01:44:48;101255.53;;;14.37;95.58
74659;BME280;63186;51.204;6.536;2022-10-17T01:47:19;101262.38;;;14.39;95.53
74659;BME280;63186;51.204;6.536;2022-10-17T01:49:48;101257.97;;;14.38;95.57
74659;BME280;63186;51.204;6.536;2022-10-17T01:52:22;101252.63;;;14.42;95.51
74659;BME280;63186;51.204;6.536;2022-10-17T01:54:59;101246.56;;;14.40;95.50
74659;BME280;63186;51.204;6.536;2022-10-17T01:59:54;101242.97;;;14.39;95.42
74659;BME280;63186;51.204;6.536;2022-10-17T02:02:20;101246.09;;;14.47;95.37
74659;BME280;63186;51.204;6.536;2022-10-17T02:04:52;101243.34;;;14.47;94.96
74659;BME280;63186;51.204;6.536;2022-10-17T02:07:19;101243.78;;;14.40;95.16
74659;BME280;63186;51.204;6.536;2022-10-17T02:09:44;101241.84;;;14.40;95.04
74659;BME280;63186;51.204;6.536;2022-10-17T02:12:32;101242.50;;;14.37;95.48
74659;BME280;63186;51.204;6.536;2022-10-17T02:15:29;101238.09;;;14.36;95.22
74659;BME280;63186;51.204;6.536;2022-10-17T02:25:38;101238.44;;;14.35;94.82
74659;BME280;63186;51.204;6.536;2022-10-17T02:28:20;101239.88;;;14.32;94.91
74659;BME280;63186;51.204;6.536;2022-10-17T02:30:54;101235.50;;;14.31;94.97
74659;BME280;63186;51.204;6.536;2022-10-17T02:34:04;101244.13;;;14.30;94.94
74659;BME280;63186;51.204;6.536;2022-10-17T02:36:26;101238.41;;;14.26;95.09
74659;BME280;63186;51.204;6.536;2022-10-17T02:38:54;101241.50;;;14.25;95.07
74659;BME280;63186;51.204;6.536;2022-10-17T02:41:22;101238.25;;;14.23;95.01
74659;BME280;63186;51.204;6.536;2022-10-17T02:43:48;101239.06;;;14.23;94.89
74659;BME280;63186;51.204;6.536;2022-10-17T02:46:17;101244.28;;;14.25;94.96
74659;BME280;63186;51.204;6.536;2022-10-17T02:48:50;101244.09;;;14.21;95.01
74659;BME280;63186;51.204;6.536;2022-10-17T02:56:30;101233.03;;;14.21;94.94
74659;BME280;63186;51.204;6.536;2022-10-17T02:59:00;101233.53;;;14.23;94.97
74659;BME280;63186;51.204;6.536;2022-10-17T03:01:28;101246.91;;;14.30;94.96
74659;BME280;63186;51.204;6.536;2022-10-17T03:04:05;101254.53;;;14.33;94.87
74659;BME280;63186;51.204;6.536;2022-10-17T03:06:30;101251.78;;;14.33;94.75
74659;BME280;63186;51.204;6.536;2022-10-17T03:08:55;101247.06;;;14.42;94.64
74659;BME280;63186;51.204;6.536;2022-10-17T03:11:20;101243.03;;;14.48;94.34
74659;BME280;63186;51.204;6.536;2022-10-17T03:13:46;101239.56;;;14.43;94.12
74659;BME280;63186;51.204;6.536;2022-10-17T03:16:11;101227.19;;;14.31;94.46
74659;BME280;63186;51.204;6.536;2022-10-17T03:18:36;101239.41;;;14.39;94.34
74659;BME280;63186;51.204;6.536;2022-10-17T03:21:01;101226.69;;;14.38;94.20
74659;BME280;63186;51.204;6.536;2022-10-17T03:23:27;101231.41;;;14.37;94.29
74659;BME280;63186;51.204;6.536;2022-10-17T03:25:52;101239.41;;;14.39;94.31
74659;BME280;63186;51.204;6.536;2022-10-17T03:28:17;101239.06;;;14.40;94.12
74659;BME280;63186;51.204;6.536;2022-10-17T03:30:42;101239.56;;;14.43;94.06
74659;BME280;63186;51.204;6.536;2022-10-17T03:33:08;101246.41;;;14.36;94.06
74659;BME280;63186;51.204;6.536;2022-10-17T03:35:33;101258.94;;;14.34;94.41
74659;BME280;63186;51.204;6.536;2022-10-17T03:38:02;101254.25;;;14.34;94.33
74659;BME280;63186;51.204;6.536;2022-10-17T03:40:27;101258.63;;;14.35;94.31
74659;BME280;63186;51.204;6.536;2022-10-17T03:42:52;101261.41;;;14.35;94.17
74659;BME280;63186;51.204;6.536;2022-10-17T03:45:17;101263.84;;;14.28;94.19
74659;BME280;63186;51.204;6.536;2022-10-17T03:47:43;101264.00;;;14.23;94.57
74659;BME280;63186;51.204;6.536;2022-10-17T03:50:08;101257.63;;;14.23;94.45
74659;BME280;63186;51.204;6.536;2022-10-17T03:52:33;101273.44;;;14.31;94.46
74659;BME280;63186;51.204;6.536;2022-10-17T03:54:59;101268.72;;;14.31;94.17
74659;BME280;63186;51.204;6.536;2022-10-17T03:57:24;101276.22;;;14.31;94.20
74659;BME280;63186;51.204;6.536;2022-10-17T03:59:49;101287.44;;;14.26;94.21
74659;BME280;63186;51.204;6.536;2022-10-17T04:02:16;101278.97;;;14.22;94.36
74659;BME280;63186;51.204;6.536;2022-10-17T04:04:41;101276.22;;;14.22;94.55
74659;BME280;63186;51.204;6.536;2022-10-17T04:07:07;101284.19;;;14.24;94.36
74659;BME280;63186;51.204;6.536;2022-10-17T04:09:32;101275.69;;;14.20;94.04
74659;BME280;63186;51.204;6.536;2022-10-17T04:11:57;101278.66;;;14.15;94.50
74659;BME280;63186;51.204;6.536;2022-10-17T04:14:22;101279.75;;;14.14;94.60
74659;BME280;63186;51.204;6.536;2022-10-17T04:16:47;101283.50;;;14.09;94.75
74659;BME280;63186;51.204;6.536;2022-10-17T04:19:13;101277.16;;;14.09;94.76
74659;BME280;63186;51.204;6.536;2022-10-17T04:21:39;101274.53;;;14.12;94.71
74659;BME280;63186;51.204;6.536;2022-10-17T04:24:04;101272.78;;;14.17;94.73
74659;BME280;63186;51.204;6.536;2022-10-17T04:26:29;101263.19;;;14.23;94.57
74659;BME280;63186;51.204;6.536;2022-10-17T04:28:55;101275.25;;;14.35;94.14
74659;BME280;63186;51.204;6.536;2022-10-17T04:31:20;101269.06;;;14.38;94.01
74659;BME280;63186;51.204;6.536;2022-10-17T04:33:49;101268.41;;;14.42;94.17
74659;BME280;63186;51.204;6.536;2022-10-17T04:36:17;101272.97;;;14.37;93.74
74659;BME280;63186;51.204;6.536;2022-10-17T04:38:43;101284.03;;;14.37;93.91
74659;BME280;63186;51.204;6.536;2022-10-17T04:41:11;101285.19;;;14.36;93.40
74659;BME280;63186;51.204;6.536;2022-10-17T04:43:37;101286.00;;;14.37;93.73
74659;BME280;63186;51.204;6.536;2022-10-17T04:46:08;101284.03;;;14.37;93.99
74659;BME280;63186;51.204;6.536;2022-10-17T04:48:35;101298.06;;;14.41;94.10
74659;BME280;63186;51.204;6.536;2022-10-17T04:51:12;101295.31;;;14.41;93.93
74659;BME280;63186;51.204;6.536;2022-10-17T04:53:38;101293.84;;;14.44;93.82
74659;BME280;63186;51.204;6.536;2022-10-17T04:56:16;101301.81;;;14.45;93.32
74659;BME280;63186;51.204;6.536;2022-10-17T04:58:42;101291.53;;;14.37;93.96
74659;BME280;63186;51.204;6.536;2022-10-17T05:01:12;101293.34;;;14.42;94.05
74659;BME280;63186;51.204;6.536;2022-10-17T05:03:38;101299.38;;;14.44;93.84
74659;BME280;63186;51.204;6.536;2022-10-17T05:06:05;101298.44;;;14.48;93.62
74659;BME280;63186;51.204;6.536;2022-10-17T05:08:31;101289.16;;;14.61;93.22
74659;BME280;63186;51.204;6.536;2022-10-17T05:10:56;101297.97;;;14.55;93.30
74659;BME280;63186;51.204;6.536;2022-10-17T05:13:21;101304.47;;;14.50;93.50
74659;BME280;63186;51.204;6.536;2022-10-17T05:15:46;101311.97;;;14.50;93.64
74659;BME280;63186;51.204;6.536;2022-10-17T05:18:12;101311.09;;;14.40;93.63
74659;BME280;63186;51.204;6.536;2022-10-17T05:20:37;101309.13;;;14.32;93.85
74659;BME280;63186;51.204;6.536;2022-10-17T05:23:02;101329.16;;;14.29;94.13
74659;BME280;63186;51.204;6.536;2022-10-17T05:25:27;101323.28;;;14.31;94.64
74659;BME280;63186;51.204;6.536;2022-10-17T05:27:53;101329.31;;;14.33;94.17
74659;BME280;63186;51.204;6.536;2022-10-17T05:30:18;101330.59;;;14.27;94.11
74659;BME280;63186;51.204;6.536;2022-10-17T05:32:44;101338.28;;;14.30;93.91
74659;BME280;63186;51.204;6.536;2022-10-17T05:35:09;101336.81;;;14.32;94.01
74659;BME280;63186;51.204;6.536;2022-10-17T05:37:34;101333.88;;;14.29;94.01
74659;BME280;63186;51.204;6.536;2022-10-17T05:39:59;101330.94;;;14.25;94.07
74659;BME280;63186;51.204;6.536;2022-10-17T05:42:25;101326.69;;;14.19;94.51
74659;BME280;63186;51.204;6.536;2022-10-17T05:44:50;101330.94;;;14.25;94.33
74659;BME280;63186;51.204;6.536;2022-10-17T05:47:15;101322.97;;;14.24;94.25
74659;BME280;63186;51.204;6.536;2022-10-17T05:49:41;101327.34;;;14.25;94.17
74659;BME280;63186;51.204;6.536;2022-10-17T05:52:06;101330.78;;;14.22;94.27
74659;BME280;63186;51.204;6.536;2022-10-17T05:54:32;101330.41;;;14.15;94.38
74659;BME280;63186;51.204;6.536;2022-10-17T05:56:57;101321.63;;;14.12;94.55
74659;BME280;63186;51.204;6.536;2022-10-17T05:59:25;101337.44;;;14.21;94.40
74659;BME280;63186;51.204;6.536;2022-10-17T06:01:51;101330.13;;;14.25;94.12
74659;BME280;63186;51.204;6.536;2022-10-17T06:04:17;101329.16;;;14.29;93.88
74659;BME280;63186;51.204;6.536;2022-10-17T06:06:42;101339.72;;;14.19;94.02
74659;BME280;63186;51.204;6.536;2022-10-17T06:09:08;101330.09;;;14.16;94.30
74659;BME280;63186;51.204;6.536;2022-10-17T06:11:34;101348.84;;;14.19;94.21
74659;BME280;63186;51.204;6.536;2022-10-17T06:14:00;101354.22;;;14.24;94.01
74659;BME280;63186;51.204;6.536;2022-10-17T06:16:26;101346.75;;;14.25;93.88
74659;BME280;63186;51.204;6.536;2022-10-17T06:18:51;101344.63;;;14.30;93.81
74659;BME280;63186;51.204;6.536;2022-10-17T06:21:20;101345.13;;;14.32;93.78
74659;BME280;63186;51.204;6.536;2022-10-17T06:23:46;101346.13;;;14.36;93.69
74659;BME280;63186;51.204;6.536;2022-10-17T06:26:11;101344.50;;;14.44;93.37
74659;BME280;63186;51.204;6.536;2022-10-17T06:28:37;101358.25;;;14.58;92.96
74659;BME280;63186;51.204;6.536;2022-10-17T06:31:06;101352.22;;;14.64;92.51
74659;BME280;63186;51.204;6.536;2022-10-17T06:33:32;101350.44;;;14.69;92.28
74659;BME280;63186;51.204;6.536;2022-10-17T06:35:57;101349.78;;;14.72;92.28
74659;BME280;63186;51.204;6.536;2022-10-17T06:38:23;101358.44;;;14.79;92.28
74659;BME280;63186;51.204;6.536;2022-10-17T06:40:48;101360.09;;;14.88;91.87
74659;BME280;63186;51.204;6.536;2022-10-17T06:43:14;101373.78;;;14.93;91.52
74659;BME280;63186;51.204;6.536;2022-10-17T06:45:39;101376.38;;;14.99;91.13
74659;BME280;63186;51.204;6.536;2022-10-17T06:48:05;101385.88;;;15.06;91.01
74659;BME280;63186;51.204;6.536;2022-10-17T06:50:31;101388.63;;;15.15;90.83
74659;BME280;63186;51.204;6.536;2022-10-17T06:52:56;101382.13;;;15.19;90.93
74659;BME280;63186;51.204;6.536;2022-10-17T06:55:21;101372.00;;;15.32;90.16
74659;BME280;63186;51.204;6.536;2022-10-17T06:57:47;101393.31;;;15.58;89.30
74659;BME280;63186;51.204;6.536;2022-10-17T07:00:12;101397.47;;;16.07;87.77
74659;BME280;63186;51.204;6.536;2022-10-17T07:02:37;101389.72;;;16.80;85.89
74659;BME280;63186;51.204;6.536;2022-10-17T07:05:03;101398.91;;;17.23;83.47
74659;BME280;63186;51.204;6.536;2022-10-17T07:07:30;101393.81;;;17.58;82.42
74659;BME280;63186;51.204;6.536;2022-10-17T07:09:56;101396.47;;;17.75;81.40
74659;BME280;63186;51.204;6.536;2022-10-17T07:12:21;101396.50;;;17.33;82.99
74659;BME280;63186;51.204;6.536;2022-10-17T07:14:48;101395.56;;;16.88;83.86
74659;BME280;63186;51.204;6.536;2022-10-17T07:17:15;101402.19;;;16.74;85.21
74659;BME280;63186;51.204;6.536;2022-10-17T07:19:40;101410.94;;;16.55;85.47
74659;BME280;63186;51.204;6.536;2022-10-17T07:22:13;101412.00;;;16.42;86.40
74659;BME280;63186;51.204;6.536;2022-10-17T07:24:41;101409.44;;;16.28;86.51
74659;BME280;63186;51.204;6.536;2022-10-17T07:27:07;101412.72;;;16.31;86.47
74659;BME280;63186;51.204;6.536;2022-10-17T07:29:32;101414.34;;;16.32;86.09
74659;BME280;63186;51.204;6.536;2022-10-17T07:31:57;101411.41;;;16.37;86.17
74659;BME280;63186;51.204;6.536;2022-10-17T07:34:23;101404.34;;;16.39;85.92
74659;BME280;63186;51.204;6.536;2022-10-17T07:36:52;101406.88;;;16.53;84.86
74659;BME280;63186;51.204;6.536;2022-10-17T07:39:17;101403.81;;;16.75;83.62
74659;BME280;63186;51.204;6.536;2022-10-17T07:41:42;101393.59;;;17.30;81.24
74659;BME280;63186;51.204;6.536;2022-10-17T07:44:07;101396.03;;;17.64;79.96
74659;BME280;63186;51.204;6.536;2022-10-17T07:46:33;101413.69;;;18.02;78.99
74659;BME280;63186;51.204;6.536;2022-10-17T07:48:58;101426.97;;;18.29;78.27
74659;BME280;63186;51.204;6.536;2022-10-17T07:51:23;101430.34;;;18.47;77.41
74659;BME280;63186;51.204;6.536;2022-10-17T07:53:49;101434.97;;;18.06;78.75
74659;BME280;63186;51.204;6.536;2022-10-17T07:56:14;101449.56;;;17.70;79.90
74659;BME280;63186;51.204;6.536;2022-10-17T07:58:40;101450.34;;;17.38;81.58
74659;BME280;63186;51.204;6.536;2022-10-17T08:01:07;101448.78;;;17.28;81.79
74659;BME280;63186;51.204;6.536;2022-10-17T08:03:35;101454.28;;;17.90;80.37
74659;BME280;63186;51.204;6.536;2022-10-17T08:06:01;101454.78;;;18.05;79.67
74659;BME280;63186;51.204;6.536;2022-10-17T08:08:27;101456.72;;;17.92;79.71
74659;BME280;63186;51.204;6.536;2022-10-17T08:10:53;101461.78;;;17.78;80.66
74659;BME280;63186;51.204;6.536;2022-10-17T08:13:20;101466.56;;;17.77;80.53
74659;BME280;63186;51.204;6.536;2022-10-17T08:15:45;101469.25;;;17.86;80.10
74659;BME280;63186;51.204;6.536;2022-10-17T08:18:12;101456.97;;;17.99;79.56
74659;BME280;63186;51.204;6.536;2022-10-17T08:20:38;101465.81;;;18.01;79.94
74659;BME280;63186;51.204;6.536;2022-10-17T08:23:03;101470.91;;;17.99;79.50
74659;BME280;63186;51.204;6.536;2022-10-17T08:25:29;101473.81;;;18.03;79.28
74659;BME280;63186;51.204;6.536;2022-10-17T08:27:54;101476.41;;;18.08;79.38
74659;BME280;63186;51.204;6.536;2022-10-17T08:30:19;101473.97;;;18.18;78.53
74659;BME280;63186;51.204;6.536;2022-10-17T08:32:44;101478.88;;;18.22;78.46
74659;BME280;63186;51.204;6.536;2022-10-17T08:35:10;101488.25;;;18.17;78.48
74659;BME280;63186;51.204;6.536;2022-10-17T08:37:35;101490.41;;;18.32;78.46
74659;BME280;63186;51.204;6.536;2022-10-17T08:40:01;101500.72;;;18.44;76.80
74659;BME280;63186;51.204;6.536;2022-10-17T08:42:44;101497.28;;;18.59;76.64
74659;BME280;63186;51.204;6.536;2022-10-17T08:45:28;101504.97;;;18.75;76.13
74659;BME280;63186;51.204;6.536;2022-10-17T08:47:59;101503.44;;;18.65;76.48
74659;BME280;63186;51.204;6.536;2022-10-17T08:50:55;101498.44;;;18.58;76.20
74659;BME280;63186;51.204;6.536;2022-10-17T08:56:28;101500.66;;;19.54;73.69
74659;BME280;63186;51.204;6.536;2022-10-17T08:58:54;101516.97;;;20.36;72.36
74659;BME280;63186;51.204;6.536;2022-10-17T09:01:33;101521.97;;;20.74;70.58
74659;BME280;63186;51.204;6.536;2022-10-17T09:04:10;101523.88;;;20.70;70.69
74659;BME280;63186;51.204;6.536;2022-10-17T09:06:54;101532.78;;;20.92;69.28
74659;BME280;63186;51.204;6.536;2022-10-17T09:09:41;101536.78;;;20.75;69.25
74659;BME280;63186;51.204;6.536;2022-10-17T09:15:54;101521.09;;;19.83;71.57
74659;BME280;63186;51.204;6.536;2022-10-17T09:20:30;101523.97;;;19.46;74.84
74659;BME280;63186;51.204;6.536;2022-10-17T09:23:00;101528.41;;;19.35;74.61
74659;BME280;63186;51.204;6.536;2022-10-17T09:25:27;101542.16;;;19.28;75.47
74659;BME280;63186;51.204;6.536;2022-10-17T09:30:42;101552.63;;;19.18;76.69
74659;BME280;63186;51.204;6.536;2022-10-17T09:33:16;101557.50;;;19.09;76.54
74659;BME280;63186;51.204;6.536;2022-10-17T09:35:44;101554.72;;;19.09;77.01
74659;BME280;63186;51.204;6.536;2022-10-17T09:38:21;101559.03;;;19.07;77.19
74659;BME280;63186;51.204;6.536;2022-10-17T09:40:53;101550.31;;;19.08;77.04
74659;BME280;63186;51.204;6.536;2022-10-17T09:43:20;101563.09;;;19.09;77.59
74659;BME280;63186;51.204;6.536;2022-10-17T09:46:00;101563.09;;;19.09;77.78
74659;BME280;63186;51.204;6.536;2022-10-17T09:48:36;101570.78;;;19.00;78.54
74659;BME280;63186;51.204;6.536;2022-10-17T09:51:02;101569.16;;;18.87;78.15
74659;BME280;63186;51.204;6.536;2022-10-17T09:53:32;101577.13;;;18.76;79.20
74659;BME280;63186;51.204;6.536;2022-10-17T09:56:01;101584.66;;;18.63;79.98
74659;BME280;63186;51.204;6.536;2022-10-17T10:01:20;101582.53;;;18.48;80.33
74659;BME280;63186;51.204;6.536;2022-10-17T10:03:47;101586.13;;;18.49;80.61
74659;BME280;63186;51.204;6.536;2022-10-17T10:06:13;101587.75;;;18.50;80.71
74659;BME280;63186;51.204;6.536;2022-10-17T10:08:53;101576.94;;;18.48;81.26
74659;BME280;63186;51.204;6.536;2022-10-17T10:11:24;101578.72;;;18.53;81.41
74659;BME280;63186;51.204;6.536;2022-10-17T10:13:51;101578.97;;;18.60;80.89
74659;BME280;63186;51.204;6.536;2022-10-17T10:16:42;101584.00;;;18.66;80.41
74659;BME280;63186;51.204;6.536;2022-10-17T10:19:27;101578.53;;;18.82;80.55
74659;BME280;63186;51.204;6.536;2022-10-17T10:22:16;101585.31;;;18.93;80.15
74659;BME280;63186;51.204;6.536;2022-10-17T10:24:41;101593.09;;;19.00;80.02
74659;BME280;63186;51.204;6.536;2022-10-17T10:27:12;101596.13;;;19.07;80.23
74659;BME280;63186;51.204;6.536;2022-10-17T10:29:47;101609.13;;;19.15;79.98
74659;BME280;63186;51.204;6.536;2022-10-17T10:32:34;101625.53;;;19.29;78.81
74659;BME280;63186;51.204;6.536;2022-10-17T10:37:53;101644.53;;;19.60;79.15
74659;BME280;63186;51.204;6.536;2022-10-17T10:40:29;101643.56;;;19.68;78.83
74659;BME280;63186;51.204;6.536;2022-10-17T10:42:57;101642.53;;;19.61;78.99
74659;BME280;63186;51.204;6.536;2022-10-17T10:45:27;101646.03;;;19.58;79.19
74659;BME280;63186;51.204;6.536;2022-10-17T10:47:57;101640.78;;;19.56;79.37
74659;BME280;63186;51.204;6.536;2022-10-17T10:55:50;101617.16;;;19.29;81.93
74659;BME280;63186;51.204;6.536;2022-10-17T11:01:02;101584.16;;;19.19;81.94
74659;BME280;63186;51.204;6.536;2022-10-17T11:03:40;101591.34;;;19.08;81.90
74659;BME280;63186;51.204;6.536;2022-10-17T11:06:18;101604.03;;;18.93;82.26
74659;BME280;63186;51.204;6.536;2022-10-17T11:09:03;101603.78;;;18.86;82.13
74659;BME280;63186;51.204;6.536;2022-10-17T11:11:31;101602.50;;;18.83;81.89
74659;BME280;63186;51.204;6.536;2022-10-17T11:14:15;101605.84;;;18.77;83.30
74659;BME280;63186;51.204;6.536;2022-10-17T11:16:49;101625.06;;;18.78;81.93
74659;BME280;63186;51.204;6.536;2022-10-17T11:19:41;101631.09;;;18.80;82.49
74659;BME280;63186;51.204;6.536;2022-10-17T11:22:15;101645.38;;;18.79;82.52
74659;BME280;63186;51.204;6.536;2022-10-17T11:24:59;101658.38;;;18.75;82.52
74659;BME280;63186;51.204;6.536;2022-10-17T11:27:29;101661.41;;;18.82;82.27
74659;BME280;63186;51.204;6.536;2022-10-17T11:29:56;101664.59;;;18.92;81.81
74659;BME280;63186;51.204;6.536;2022-10-17T11:32:28;101662.38;;;19.10;81.83
74659;BME280;63186;51.204;6.536;2022-10-17T11:35:06;101660.69;;;19.30;81.04
74659;BME280;63186;51.204;6.536;2022-10-17T11:37:38;101667.06;;;19.43;81.09
74659;BME280;63186;51.204;6.536;2022-10-17T11:40:35;101674.97;;;19.53;81.02
74659;BME280;63186;51.204;6.536;2022-10-17T11:43:04;101678.94;;;19.52;81.08
74659;BME280;63186;51.204;6.536;2022-10-17T11:45:39;101666.25;;;19.55;80.88
74659;BME280;63186;51.204;6.536;2022-10-17T11:48:15;101675.69;;;19.50;80.83
74659;BME280;63186;51.204;6.536;2022-10-17T11:50:47;101681.88;;;19.43;81.26
74659;BME280;63186;51.204;6.536;2022-10-17T11:53:21;101678.81;;;19.36;81.05
74659;BME280;63186;51.204;6.536;2022-10-17T11:55:47;101686.84;;;19.25;81.12
74659;BME280;63186;51.204;6.536;2022-10-17T11:58:26;101683.47;;;19.20;81.06
74659;BME280;63186;51.204;6.536;2022-10-17T12:01:07;101683.22;;;19.13;81.32
74659;BME280;63186;51.204;6.536;2022-10-17T12:06:55;101684.22;;;18.96;81.63
74659;BME280;63186;51.204;6.536;2022-10-17T12:09:37;101689.69;;;18.92;81.39
74659;BME280;63186;51.204;6.536;2022-10-17T12:12:05;101682.72;;;18.86;82.33
74659;BME280;63186;51.204;6.536;2022-10-17T12:14:38;101692.09;;;18.82;82.27
74659;BME280;63186;51.204;6.536;2022-10-17T12:17:19;101692.47;;;18.80;82.49
74659;BME280;63186;51.204;6.536;2022-10-17T12:19:46;101684.44;;;18.79;82.13
74659;BME280;63186;51.204;6.536;2022-10-17T12:24:51;101686.75;;;18.77;81.83
74659;BME280;63186;51.204;6.536;2022-10-17T12:27:21;101697.91;;;18.77;82.08
74659;BME280;63186;51.204;6.536;2022-10-17T12:29:47;101692.88;;;18.70;82.42
74659;BME280;63186;51.204;6.536;2022-10-17T12:32:13;101704.56;;;18.63;82.38
74659;BME280;63186;51.204;6.536;2022-10-17T12:34:39;101702.13;;;18.62;81.95
74659;BME280;63186;51.204;6.536;2022-10-17T12:51:06;101712.34;;;18.79;80.79
74659;BME280;63186;51.204;6.536;2022-10-17T12:56:13;101717.34;;;18.85;80.54
74659;BME280;63186;51.204;6.536;2022-10-17T12:58:44;101715.84;;;18.88;80.30
74659;BME280;63186;51.204;6.536;2022-10-17T13:01:17;101717.97;;;18.91;79.97
74659;BME280;63186;51.204;6.536;2022-10-17T13:03:45;101719.44;;;18.88;80.11
74659;BME280;63186;51.204;6.536;2022-10-17T13:06:19;101716.53;;;18.85;80.50
74659;BME280;63186;51.204;6.536;2022-10-17T13:08:48;101725.38;;;18.87;80.56
74659;BME280;63186;51.204;6.536;2022-10-17T13:11:14;101724.41;;;18.83;80.60
74659;BME280;63186;51.204;6.536;2022-10-17T13:13:48;101731.50;;;18.80;81.20
74659;BME280;63186;51.204;6.536;2022-10-17T13:16:49;101745.00;;;18.78;80.86
74659;BME280;63186;51.204;6.536;2022-10-17T13:19:18;101748.25;;;18.80;80.81
74659;BME280;63186;51.204;6.536;2022-10-17T13:21:50;101748.09;;;18.77;80.58
74659;BME280;63186;51.204;6.536;2022-10-17T13:26:54;101750.22;;;18.80;80.77
74659;BME280;63186;51.204;6.536;2022-10-17T13:29:19;101751.84;;;18.81;80.36
74659;BME280;63186;51.204;6.536;2022-10-17T13:31:53;101754.66;;;18.81;80.88
74659;BME280;63186;51.204;6.536;2022-10-17T13:34:24;101751.84;;;18.81;80.51
74659;BME280;63186;51.204;6.536;2022-10-17T13:37:01;101755.81;;;18.80;80.91
74659;BME280;63186;51.204;6.536;2022-10-17T13:39:32;101746.38;;;18.84;80.56
74659;BME280;63186;51.204;6.536;2022-10-17T13:41:58;101754.81;;;18.96;80.11
74659;BME280;63186;51.204;6.536;2022-10-17T13:44:26;101756.22;;;19.03;79.64
74659;BME280;63186;51.204;6.536;2022-10-17T13:46:52;101759.41;;;19.13;79.36
74659;BME280;63186;51.204;6.536;2022-10-17T13:49:33;101758.84;;;19.20;78.69
74659;BME280;63186;51.204;6.536;2022-10-17T13:52:02;101768.72;;;19.30;77.93
74659;BME280;63186;51.204;6.536;2022-10-17T13:54:35;101766.88;;;19.34;78.13
74659;BME280;63186;51.204;6.536;2022-10-17T13:57:02;101776.88;;;19.35;78.63
74659;BME280;63186;51.204;6.536;2022-10-17T13:59:36;101772.38;;;19.30;77.80
74659;BME280;63186;51.204;6.536;2022-10-17T14:02:02;101777.44;;;19.28;78.87
74659;BME280;63186;51.204;6.536;2022-10-17T14:04:28;101779.19;;;19.20;79.10
74659;BME280;63186;51.204;6.536;2022-10-17T14:06:53;101778.72;;;19.18;79.07
74659;BME280;63186;51.204;6.536;2022-10-17T14:09:29;101786.16;;;19.14;79.13
74659;BME280;63186;51.204;6.536;2022-10-17T14:12:02;101785.19;;;19.10;79.37
74659;BME280;63186;51.204;6.536;2022-10-17T14:14:28;101789.03;;;19.06;80.11
74659;BME280;63186;51.204;6.536;2022-10-17T14:16:54;101784.94;;;19.03;80.02
74659;BME280;63186;51.204;6.536;2022-10-17T14:21:55;101786.84;;;19.11;79.48
74659;BME280;63186;51.204;6.536;2022-10-17T14:24:38;101802.22;;;19.17;79.74